createdAt,value
2023-07-03T00:00:59.065Z,606.00
2023-07-03T00:01:59.143Z,610.00
2023-07-03T00:02:59.088Z,613.00
2023-07-03T00:03:59.100Z,611.00
2023-07-03T00:04:59.137Z,608.00
2023-07-03T00:05:59.022Z,604.00
2023-07-03T00:06:59.030Z,608.00
2023-07-03T00:07:59.064Z,606.00
2023-07-03T00:08:59.048Z,607.00
2023-07-03T00:09:59.085Z,604.00
2023-07-03T00:10:59.105Z,607.00
2023-07-03T00:11:59.054Z,609.00
2023-07-03T00:12:59.057Z,603.00
2023-07-03T00:13:59.062Z,608.00
2023-07-03T00:14:59.065Z,607.00
2023-07-03T00:15:59.095Z,608.00
2023-07-03T00:16:59.101Z,605.00
2023-07-03T00:17:59.116Z,602.00
2023-07-03T00:18:59.080Z,611.00
2023-07-03T00:19:59.074Z,604.00
2023-07-03T00:20:59.130Z,608.00
2023-07-03T00:21:59.096Z,607.00
2023-07-03T00:22:59.124Z,607.00
2023-07-03T00:23:59.097Z,604.00
2023-07-03T00:24:59.095Z,605.00
2023-07-03T00:25:59.151Z,607.00
2023-07-03T00:26:59.114Z,612.00
2023-07-03T00:27:59.132Z,609.00
2023-07-03T00:28:59.138Z,608.00
2023-07-03T00:29:59.143Z,607.00
2023-07-03T00:30:59.119Z,605.00
2023-07-03T00:31:59.141Z,607.00
2023-07-03T00:32:59.146Z,607.00
2023-07-03T00:33:59.127Z,607.00
2023-07-03T00:34:59.150Z,605.00
2023-07-03T00:35:59.111Z,602.00
2023-07-03T00:36:59.118Z,604.00
2023-07-03T00:37:59.105Z,604.00
2023-07-03T00:38:59.104Z,611.00
2023-07-03T00:39:59.096Z,602.00
2023-07-03T00:40:59.103Z,603.00
2023-07-03T00:41:59.096Z,606.00
2023-07-03T00:42:59.186Z,600.00
2023-07-03T00:43:59.088Z,602.00
2023-07-03T00:44:59.115Z,610.00
2023-07-03T00:45:59.102Z,608.00
2023-07-03T00:46:59.082Z,604.00
2023-07-03T00:47:59.129Z,601.00
2023-07-03T00:48:59.121Z,604.00
2023-07-03T00:49:59.143Z,605.00
2023-07-03T00:50:59.233Z,603.00
2023-07-03T00:51:59.170Z,604.00
2023-07-03T00:52:59.225Z,604.00
2023-07-03T00:53:59.224Z,600.00
2023-07-03T00:54:59.250Z,601.00
2023-07-03T00:55:59.262Z,603.00
2023-07-03T00:56:59.222Z,603.00
2023-07-03T00:57:59.254Z,603.00
2023-07-03T00:58:59.263Z,601.00
2023-07-03T00:59:59.259Z,602.00
2023-07-03T01:01:06.356Z,599.00
2023-07-03T01:01:59.372Z,600.00
2023-07-03T01:02:59.820Z,602.00
2023-07-03T01:03:59.267Z,603.00
2023-07-03T01:04:59.377Z,605.00
2023-07-03T01:05:59.259Z,606.00
2023-07-03T01:06:59.236Z,605.00
2023-07-03T01:07:59.711Z,600.00
2023-07-03T01:08:59.232Z,602.00
2023-07-03T01:09:59.231Z,598.00
2023-07-03T01:10:59.738Z,603.00
2023-07-03T01:11:59.209Z,601.00
2023-07-03T01:12:59.224Z,600.00
2023-07-03T01:13:59.197Z,602.00
2023-07-03T01:14:59.203Z,600.00
2023-07-03T01:15:59.192Z,603.00
2023-07-03T01:16:59.157Z,602.00
2023-07-03T01:17:59.190Z,598.00
2023-07-03T01:18:59.168Z,602.00
2023-07-03T01:19:59.155Z,598.00
2023-07-03T01:20:59.160Z,600.00
2023-07-03T01:21:59.131Z,602.00
2023-07-03T01:22:59.115Z,601.00
2023-07-03T01:23:59.108Z,601.00
2023-07-03T01:24:59.102Z,596.00
2023-07-03T01:25:59.105Z,598.00
2023-07-03T01:26:59.120Z,598.00
2023-07-03T01:27:59.087Z,597.00
2023-07-03T01:28:59.081Z,599.00
2023-07-03T01:29:59.093Z,597.00
2023-07-03T01:30:59.089Z,601.00
2023-07-03T01:31:59.091Z,600.00
2023-07-03T01:32:59.066Z,604.00
2023-07-03T01:33:59.045Z,604.00
2023-07-03T01:34:59.054Z,599.00
2023-07-03T01:35:59.066Z,597.00
2023-07-03T01:36:59.033Z,599.00
2023-07-03T01:37:59.026Z,600.00
2023-07-03T01:38:59.053Z,602.00
2023-07-03T01:39:59.081Z,601.00
2023-07-03T01:40:59.104Z,602.00
2023-07-03T01:41:59.161Z,602.00
2023-07-03T01:42:59.205Z,600.00
2023-07-03T01:43:59.216Z,597.00
2023-07-03T01:44:59.220Z,595.00
2023-07-03T01:45:59.304Z,599.00
2023-07-03T01:46:59.305Z,602.00
2023-07-03T01:47:59.468Z,597.00
2023-07-03T01:48:59.388Z,602.00
2023-07-03T01:49:59.445Z,597.00
2023-07-03T01:50:59.478Z,600.00
2023-07-03T01:51:59.517Z,600.00
2023-07-03T01:52:59.542Z,600.00
2023-07-03T01:53:59.585Z,601.00
2023-07-03T01:54:59.622Z,599.00
2023-07-03T01:55:59.646Z,594.00
2023-07-03T01:56:59.650Z,604.00
2023-07-03T01:57:59.713Z,598.00
2023-07-03T01:58:59.758Z,599.00
2023-07-03T01:59:59.805Z,598.00
2023-07-03T02:00:59.889Z,602.00
2023-07-03T02:01:59.924Z,602.00
2023-07-03T02:02:59.979Z,598.00
2023-07-03T02:03:59.958Z,596.00
2023-07-03T02:05:00.044Z,598.00
2023-07-03T02:06:00.005Z,598.00
2023-07-03T02:07:00.102Z,601.00
2023-07-03T02:08:00.115Z,602.00
2023-07-03T02:09:00.166Z,596.00
2023-07-03T02:10:00.247Z,601.00
2023-07-03T02:11:00.236Z,597.00
2023-07-03T02:12:00.293Z,596.00
2023-07-03T02:13:00.304Z,600.00
2023-07-03T02:14:00.353Z,599.00
2023-07-03T02:15:00.380Z,602.00
2023-07-03T02:16:00.415Z,598.00
2023-07-03T02:17:00.514Z,601.00
2023-07-03T02:18:00.565Z,599.00
2023-07-03T02:19:00.538Z,597.00
2023-07-03T02:20:00.591Z,601.00
2023-07-03T02:21:00.586Z,598.00
2023-07-03T02:22:00.639Z,598.00
2023-07-03T02:23:00.661Z,601.00
2023-07-03T02:24:00.701Z,597.00
2023-07-03T02:25:00.736Z,595.00
2023-07-03T02:26:00.771Z,596.00
2023-07-03T02:27:00.818Z,598.00
2023-07-03T02:28:00.870Z,598.00
2023-07-03T02:29:00.937Z,596.00
2023-07-03T02:30:00.960Z,600.00
2023-07-03T02:31:01.019Z,603.00
2023-07-03T02:32:01.029Z,596.00
2023-07-03T02:33:01.095Z,597.00
2023-07-03T02:34:01.052Z,597.00
2023-07-03T02:35:01.072Z,599.00
2023-07-03T02:36:01.088Z,599.00
2023-07-03T02:37:01.106Z,595.00
2023-07-03T02:38:01.109Z,595.00
2023-07-03T02:39:01.122Z,591.00
2023-07-03T02:40:01.132Z,590.00
2023-07-03T02:41:01.145Z,602.00
2023-07-03T02:42:01.147Z,599.00
2023-07-03T02:43:01.140Z,595.00
2023-07-03T02:44:01.143Z,595.00
2023-07-03T02:45:01.205Z,595.00
2023-07-03T02:46:01.170Z,597.00
2023-07-03T02:47:01.234Z,597.00
2023-07-03T02:48:01.271Z,595.00
2023-07-03T02:49:01.249Z,597.00
2023-07-03T02:50:01.397Z,602.00
2023-07-03T02:51:01.296Z,599.00
2023-07-03T02:52:01.352Z,596.00
2023-07-03T02:53:01.373Z,597.00
2023-07-03T02:54:01.373Z,597.00
2023-07-03T02:55:01.445Z,595.00
2023-07-03T02:56:01.465Z,596.00
2023-07-03T02:57:01.496Z,593.00
2023-07-03T02:58:01.504Z,598.00
2023-07-03T02:59:01.545Z,597.00
2023-07-03T03:00:01.578Z,597.00
2023-07-03T03:01:01.642Z,596.00
2023-07-03T03:02:01.670Z,597.00
2023-07-03T03:03:01.676Z,599.00
2023-07-03T03:04:01.693Z,594.00
2023-07-03T03:05:01.744Z,595.00
2023-07-03T03:06:01.662Z,595.00
2023-07-03T03:07:01.683Z,594.00
2023-07-03T03:08:01.711Z,596.00
2023-07-03T03:09:01.697Z,592.00
2023-07-03T03:10:01.717Z,594.00
2023-07-03T03:11:01.756Z,596.00
2023-07-03T03:12:01.704Z,597.00
2023-07-03T03:13:01.728Z,601.00
2023-07-03T03:14:01.717Z,597.00
2023-07-03T03:15:01.742Z,597.00
2023-07-03T03:16:01.730Z,600.00
2023-07-03T03:17:01.779Z,594.00
2023-07-03T03:18:01.773Z,596.00
2023-07-03T03:19:01.720Z,596.00
2023-07-03T03:20:01.708Z,598.00
2023-07-03T03:21:01.754Z,595.00
2023-07-03T03:22:01.725Z,597.00
2023-07-03T03:23:01.703Z,592.00
2023-07-03T03:24:01.729Z,595.00
2023-07-03T03:25:01.732Z,592.00
2023-07-03T03:26:01.768Z,596.00
2023-07-03T03:27:01.784Z,596.00
2023-07-03T03:28:01.781Z,598.00
2023-07-03T03:29:01.767Z,596.00
2023-07-03T03:30:01.775Z,596.00
2023-07-03T03:31:01.856Z,597.00
2023-07-03T03:32:01.769Z,596.00
2023-07-03T03:33:01.800Z,595.00
2023-07-03T03:34:01.748Z,597.00
2023-07-03T03:35:01.758Z,595.00
2023-07-03T03:36:01.749Z,595.00
2023-07-03T03:37:01.757Z,595.00
2023-07-03T03:38:01.762Z,595.00
2023-07-03T03:39:01.771Z,596.00
2023-07-03T03:40:01.774Z,596.00
2023-07-03T03:41:01.784Z,596.00
2023-07-03T03:42:01.825Z,596.00
2023-07-03T03:43:01.817Z,598.00
2023-07-03T03:44:01.843Z,597.00
2023-07-03T03:45:01.827Z,597.00
2023-07-03T03:46:01.842Z,598.00
2023-07-03T03:47:01.843Z,596.00
2023-07-03T03:48:01.886Z,594.00
2023-07-03T03:49:01.919Z,600.00
2023-07-03T03:50:01.898Z,596.00
2023-07-03T03:51:02.039Z,593.00
2023-07-03T03:52:01.856Z,598.00
2023-07-03T03:53:01.873Z,599.00
2023-07-03T03:54:01.875Z,601.00
2023-07-03T03:55:01.902Z,595.00
2023-07-03T03:56:01.888Z,596.00
2023-07-03T03:57:01.899Z,594.00
2023-07-03T03:58:01.904Z,597.00
2023-07-03T03:59:01.924Z,594.00
2023-07-03T04:00:01.940Z,599.00
2023-07-03T04:01:01.935Z,596.00
2023-07-03T04:02:02.115Z,596.00
2023-07-03T04:03:02.012Z,601.00
2023-07-03T04:04:02.028Z,601.00
2023-07-03T04:05:02.035Z,599.00
2023-07-03T04:06:01.976Z,593.00
2023-07-03T04:07:01.974Z,595.00
2023-07-03T04:08:01.963Z,595.00
2023-07-03T04:09:01.972Z,595.00
2023-07-03T04:10:01.987Z,598.00
2023-07-03T04:11:01.979Z,598.00
2023-07-03T04:12:01.986Z,596.00
2023-07-03T04:13:01.971Z,596.00
2023-07-03T04:14:02.037Z,593.00
2023-07-03T04:15:01.997Z,596.00
2023-07-03T04:16:02.724Z,593.00
2023-07-03T04:17:02.059Z,597.00
2023-07-03T04:18:02.124Z,595.00
2023-07-03T04:19:01.965Z,593.00
2023-07-03T04:20:01.975Z,593.00
2023-07-03T04:21:01.972Z,592.00
2023-07-03T04:22:01.988Z,596.00
2023-07-03T04:23:01.967Z,593.00
2023-07-03T04:24:01.987Z,590.00
2023-07-03T04:25:02.002Z,599.00
2023-07-03T04:26:02.035Z,596.00
2023-07-03T04:27:02.041Z,595.00
2023-07-03T04:28:02.049Z,596.00
2023-07-03T04:29:02.041Z,594.00
2023-07-03T04:30:02.044Z,593.00
2023-07-03T04:31:02.050Z,596.00
2023-07-03T04:32:02.099Z,590.00
2023-07-03T04:33:02.123Z,593.00
2023-07-03T04:34:02.087Z,591.00
2023-07-03T04:35:02.105Z,591.00
2023-07-03T04:36:02.118Z,595.00
2023-07-03T04:37:02.128Z,591.00
2023-07-03T04:38:02.119Z,591.00
2023-07-03T04:39:02.211Z,592.00
2023-07-03T04:40:02.157Z,590.00
2023-07-03T04:41:02.125Z,596.00
2023-07-03T04:42:02.104Z,591.00
2023-07-03T04:43:02.102Z,592.00
2023-07-03T04:44:02.215Z,592.00
2023-07-03T04:45:02.125Z,590.00
2023-07-03T04:46:02.150Z,590.00
2023-07-03T04:47:02.110Z,589.00
2023-07-03T04:48:02.114Z,589.00
2023-07-03T04:49:02.116Z,591.00
2023-07-03T04:50:02.127Z,591.00
2023-07-03T04:51:02.119Z,589.00
2023-07-03T04:52:02.133Z,590.00
2023-07-03T04:53:02.153Z,592.00
2023-07-03T04:54:02.196Z,593.00
2023-07-03T04:55:02.138Z,591.00
2023-07-03T04:56:02.164Z,592.00
2023-07-03T04:57:02.189Z,589.00
2023-07-03T04:58:02.167Z,589.00
2023-07-03T04:59:02.163Z,585.00
2023-07-03T05:00:02.254Z,586.00
2023-07-03T05:01:02.269Z,586.00
2023-07-03T05:02:02.199Z,595.00
2023-07-03T05:03:02.218Z,588.00
2023-07-03T05:04:02.263Z,593.00
2023-07-03T05:05:02.300Z,590.00
2023-07-03T05:06:02.195Z,586.00
2023-07-03T05:07:02.208Z,591.00
2023-07-03T05:08:02.215Z,587.00
2023-07-03T05:09:02.249Z,589.00
2023-07-03T05:10:02.262Z,594.00
2023-07-03T05:11:02.246Z,590.00
2023-07-03T05:12:02.269Z,585.00
2023-07-03T05:13:02.311Z,586.00
2023-07-03T05:14:02.262Z,594.00
2023-07-03T05:15:02.279Z,588.00
2023-07-03T05:16:02.383Z,586.00
2023-07-03T05:17:02.305Z,584.00
2023-07-03T05:18:02.379Z,596.00
2023-07-03T05:19:02.320Z,591.00
2023-07-03T05:20:02.350Z,590.00
2023-07-03T05:21:02.351Z,591.00
2023-07-03T05:22:02.373Z,591.00
2023-07-03T05:23:02.340Z,588.00
2023-07-03T05:24:02.362Z,592.00
2023-07-03T05:25:02.357Z,585.00
2023-07-03T05:26:02.366Z,592.00
2023-07-03T05:27:02.401Z,591.00
2023-07-03T05:28:02.418Z,594.00
2023-07-03T05:29:02.396Z,589.00
2023-07-03T05:30:02.444Z,592.00
2023-07-03T05:31:02.427Z,589.00
2023-07-03T05:32:02.918Z,590.00
2023-07-03T05:33:02.434Z,590.00
2023-07-03T05:34:02.382Z,586.00
2023-07-03T05:35:02.388Z,587.00
2023-07-03T05:36:02.421Z,613.00
2023-07-03T05:37:02.832Z,622.00
2023-07-03T05:38:02.495Z,627.00
2023-07-03T05:39:02.572Z,629.00
2023-07-03T05:40:02.513Z,651.00
2023-07-03T05:41:02.564Z,660.00
2023-07-03T05:42:02.831Z,652.00
2023-07-03T05:43:02.759Z,628.00
2023-07-03T05:44:02.706Z,639.00
2023-07-03T05:45:02.818Z,648.00
2023-07-03T05:46:02.817Z,628.00
2023-07-03T05:47:03.811Z,630.00
2023-07-03T05:48:03.036Z,642.00
2023-07-03T05:49:03.049Z,640.00
2023-07-03T05:50:03.099Z,628.00
2023-07-03T05:51:03.168Z,601.00
2023-07-03T05:52:03.245Z,597.00
2023-07-03T05:53:03.263Z,588.00
2023-07-03T05:54:03.310Z,576.00
2023-07-03T05:55:03.372Z,576.00
2023-07-03T05:56:03.425Z,589.00
2023-07-03T05:57:03.455Z,582.00
2023-07-03T05:58:03.500Z,583.00
2023-07-03T05:59:03.557Z,588.00
2023-07-03T06:00:03.564Z,589.00
2023-07-03T06:01:03.629Z,593.00
2023-07-03T06:02:03.862Z,598.00
2023-07-03T06:03:03.883Z,605.00
2023-07-03T06:04:03.734Z,606.00
2023-07-03T06:05:03.913Z,618.00
2023-07-03T06:06:03.759Z,627.00
2023-07-03T06:07:03.847Z,630.00
2023-07-03T06:08:03.884Z,639.00
2023-07-03T06:09:03.880Z,645.00
2023-07-03T06:10:03.893Z,655.00
2023-07-03T06:11:03.925Z,657.00
2023-07-03T06:12:03.936Z,669.00
2023-07-03T06:13:03.965Z,693.00
2023-07-03T06:14:03.976Z,683.00
2023-07-03T06:15:03.983Z,700.00
2023-07-03T06:16:03.981Z,716.00
2023-07-03T06:17:04.172Z,730.00
2023-07-03T06:18:04.146Z,727.00
2023-07-03T06:19:04.018Z,718.00
2023-07-03T06:20:04.041Z,719.00
2023-07-03T06:21:04.034Z,726.00
2023-07-03T06:22:04.032Z,704.00
2023-07-03T06:23:04.042Z,692.00
2023-07-03T06:24:04.049Z,703.00
2023-07-03T06:25:04.042Z,729.00
2023-07-03T06:26:04.037Z,743.00
2023-07-03T06:27:04.072Z,742.00
2023-07-03T06:28:04.045Z,739.00
2023-07-03T06:29:04.095Z,741.00
2023-07-03T06:30:04.076Z,783.00
2023-07-03T06:31:04.090Z,820.00
2023-07-03T06:32:04.031Z,799.00
2023-07-03T06:33:04.121Z,836.00
2023-07-03T06:34:04.037Z,849.00
2023-07-03T06:35:06.781Z,865.00
2023-07-03T06:36:04.023Z,900.00
2023-07-03T06:37:04.065Z,898.00
2023-07-03T06:38:04.029Z,953.00
2023-07-03T06:39:04.001Z,873.00
2023-07-03T06:40:03.993Z,770.00
2023-07-03T06:41:04.003Z,710.00
2023-07-03T06:42:04.401Z,664.00
2023-07-03T06:43:03.986Z,653.00
2023-07-03T06:44:03.995Z,633.00
2023-07-03T06:45:04.177Z,610.00
2023-07-03T06:46:03.964Z,614.00
2023-07-03T06:47:04.004Z,595.00
2023-07-03T06:48:04.097Z,571.00
2023-07-03T06:49:03.933Z,558.00
2023-07-03T06:50:03.931Z,560.00
2023-07-03T06:51:03.971Z,558.00
2023-07-03T06:52:04.377Z,562.00
2023-07-03T06:53:03.901Z,562.00
2023-07-03T06:54:03.888Z,561.00
2023-07-03T06:55:03.888Z,546.00
2023-07-03T06:56:03.899Z,546.00
2023-07-03T06:57:04.365Z,534.00
2023-07-03T06:58:03.882Z,531.00
2023-07-03T06:59:03.872Z,524.00
2023-07-03T07:00:03.873Z,514.00
2023-07-03T07:01:03.937Z,510.00
2023-07-03T07:02:03.953Z,505.00
2023-07-03T07:03:04.027Z,513.00
2023-07-03T07:04:04.053Z,510.00
2023-07-03T07:05:04.315Z,502.00
2023-07-03T07:06:03.896Z,507.00
2023-07-03T07:07:03.830Z,505.00
2023-07-03T07:08:03.824Z,504.00
2023-07-03T07:09:03.801Z,502.00
2023-07-03T07:10:03.811Z,503.00
2023-07-03T07:11:03.831Z,504.00
2023-07-03T07:12:03.783Z,502.00
2023-07-03T07:13:03.783Z,500.00
2023-07-03T07:14:03.779Z,502.00
2023-07-03T07:15:03.781Z,501.00
2023-07-03T07:16:03.772Z,500.00
2023-07-03T07:17:03.902Z,506.00
2023-07-03T07:18:03.836Z,503.00
2023-07-03T07:19:03.757Z,501.00
2023-07-03T07:20:03.755Z,502.00
2023-07-03T07:21:03.734Z,501.00
2023-07-03T07:22:03.713Z,506.00
2023-07-03T07:23:03.737Z,500.00
2023-07-03T07:24:03.695Z,503.00
2023-07-03T07:25:03.690Z,501.00
2023-07-03T07:26:03.698Z,501.00
2023-07-03T07:27:03.706Z,500.00
2023-07-03T07:28:03.703Z,500.00
2023-07-03T07:29:03.686Z,507.00
2023-07-03T07:30:03.670Z,500.00
2023-07-03T07:31:03.700Z,511.00
2023-07-03T07:32:03.656Z,516.00
2023-07-03T07:33:03.800Z,578.00
2023-07-03T07:34:03.670Z,611.00
2023-07-03T07:35:03.724Z,679.00
2023-07-03T07:36:03.770Z,737.00
2023-07-03T07:37:03.814Z,792.00
2023-07-03T07:38:03.845Z,858.00
2023-07-03T07:39:03.870Z,938.00
2023-07-03T07:40:03.944Z,1004.00
2023-07-03T07:41:04.047Z,1047.00
2023-07-03T07:42:04.043Z,1026.00
2023-07-03T07:43:04.020Z,977.00
2023-07-03T07:44:04.084Z,925.00
2023-07-03T07:45:04.096Z,864.00
2023-07-03T07:46:04.131Z,821.00
2023-07-03T07:47:04.158Z,791.00
2023-07-03T07:48:04.208Z,784.00
2023-07-03T07:49:04.400Z,754.00
2023-07-03T07:50:04.272Z,706.00
2023-07-03T07:51:04.312Z,677.00
2023-07-03T07:52:04.330Z,654.00
2023-07-03T07:53:04.360Z,649.00
2023-07-03T07:54:04.479Z,628.00
2023-07-03T07:55:04.443Z,622.00
2023-07-03T07:56:04.453Z,610.00
2023-07-03T07:57:04.493Z,600.00
2023-07-03T07:58:04.570Z,597.00
2023-07-03T07:59:04.640Z,570.00
2023-07-03T08:00:04.618Z,557.00
2023-07-03T08:01:04.689Z,547.00
2023-07-03T08:02:04.738Z,550.00
2023-07-03T08:03:06.659Z,546.00
2023-07-03T08:04:04.774Z,544.00
2023-07-03T08:05:04.876Z,531.00
2023-07-03T08:06:04.764Z,519.00
2023-07-03T08:07:04.723Z,505.00
2023-07-03T08:08:04.710Z,498.00
2023-07-03T08:09:04.765Z,501.00
2023-07-03T08:10:04.716Z,502.00
2023-07-03T08:11:04.711Z,500.00
2023-07-03T08:12:04.682Z,503.00
2023-07-03T08:13:04.740Z,507.00
2023-07-03T08:14:04.678Z,502.00
2023-07-03T08:15:04.660Z,500.00
2023-07-03T08:16:04.665Z,502.00
2023-07-03T08:17:04.654Z,500.00
2023-07-03T08:18:04.724Z,511.00
2023-07-03T08:19:04.628Z,500.00
2023-07-03T08:20:04.647Z,500.00
2023-07-03T08:21:04.734Z,500.00
2023-07-03T08:22:04.627Z,507.00
2023-07-03T08:23:04.590Z,511.00
2023-07-03T08:24:05.228Z,516.00
2023-07-03T08:25:04.591Z,546.00
2023-07-03T08:26:04.629Z,569.00
2023-07-03T08:27:04.677Z,595.00
2023-07-03T08:28:04.716Z,574.00
2023-07-03T08:29:04.734Z,596.00
2023-07-03T08:30:04.801Z,612.00
2023-07-03T08:31:04.816Z,596.00
2023-07-03T08:32:04.957Z,563.00
2023-07-03T08:33:05.047Z,557.00
2023-07-03T08:34:05.024Z,537.00
2023-07-03T08:37:08.372Z,518.00
2023-07-03T08:38:04.924Z,518.00
2023-07-03T08:39:04.958Z,504.00
2023-07-03T08:40:05.947Z,485.00
2023-07-03T08:41:04.917Z,473.00
2023-07-03T08:42:04.915Z,474.00
2023-07-03T08:43:04.900Z,532.00
2023-07-03T08:44:04.902Z,580.00
2023-07-03T08:45:04.905Z,621.00
2023-07-03T08:46:04.917Z,701.00
2023-07-03T08:47:11.453Z,804.00
2023-07-03T08:48:05.932Z,808.00
2023-07-03T08:49:04.876Z,832.00
2023-07-03T08:50:07.247Z,887.00
2023-07-03T08:51:04.869Z,816.00
2023-07-03T08:52:04.927Z,862.00
2023-07-03T08:53:05.015Z,959.00
2023-07-03T08:54:04.833Z,1122.00
2023-07-03T08:55:04.813Z,1348.00
2023-07-03T08:56:04.817Z,1424.00
2023-07-03T08:57:04.823Z,1466.00
2023-07-03T08:58:04.838Z,1514.00
2023-07-03T08:59:04.785Z,1537.00
2023-07-03T09:00:04.781Z,1569.00
2023-07-03T09:01:04.820Z,1596.00
2023-07-03T09:02:04.998Z,1635.00
2023-07-03T09:03:06.037Z,1663.00
2023-07-03T09:04:04.753Z,1696.00
2023-07-03T09:05:04.812Z,1732.00
2023-07-03T09:06:04.783Z,1766.00
2023-07-03T09:07:04.761Z,1806.00
2023-07-03T09:08:04.726Z,1833.00
2023-07-03T09:09:04.924Z,1864.00
2023-07-03T09:10:04.755Z,1890.00
2023-07-03T09:11:04.717Z,1916.00
2023-07-03T09:12:04.917Z,1927.00
2023-07-03T09:13:04.756Z,1970.00
2023-07-03T09:14:04.742Z,1970.00
2023-07-03T09:15:06.032Z,1980.00
2023-07-03T09:16:04.742Z,1990.00
2023-07-03T09:17:04.820Z,2021.00
2023-07-03T09:18:04.817Z,2054.00
2023-07-03T09:19:04.768Z,2054.00
2023-07-03T09:20:04.754Z,2071.00
2023-07-03T09:21:04.822Z,2091.00
2023-07-03T09:22:04.777Z,2097.00
2023-07-03T09:23:04.756Z,2103.00
2023-07-03T09:24:04.777Z,2133.00
2023-07-03T09:25:05.108Z,2114.00
2023-07-03T09:26:05.607Z,2127.00
2023-07-03T09:27:04.827Z,2110.00
2023-07-03T09:28:04.861Z,2153.00
2023-07-03T09:29:05.049Z,2131.00
2023-07-03T09:30:04.996Z,2124.00
2023-07-03T09:31:05.428Z,2152.00
2023-07-03T09:32:05.485Z,2156.00
2023-07-03T09:33:05.205Z,2155.00
2023-07-03T09:34:05.229Z,2151.00
2023-07-03T09:35:05.290Z,2138.00
2023-07-03T09:36:05.350Z,2134.00
2023-07-03T09:37:05.422Z,2140.00
2023-07-03T09:38:05.446Z,2138.00
2023-07-03T09:39:05.492Z,2132.00
2023-07-03T09:40:05.612Z,2119.00
2023-07-03T09:41:05.647Z,2105.00
2023-07-03T09:42:05.620Z,2118.00
2023-07-03T09:43:05.637Z,2101.00
2023-07-03T09:44:05.677Z,2106.00
2023-07-03T09:45:05.669Z,2107.00
2023-07-03T09:46:05.675Z,2105.00
2023-07-03T09:47:05.761Z,2115.00
2023-07-03T09:48:05.877Z,2098.00
2023-07-03T09:49:05.719Z,2087.00
2023-07-03T09:50:05.692Z,2101.00
2023-07-03T09:51:07.852Z,2086.00
2023-07-03T09:52:05.759Z,2083.00
2023-07-03T09:53:08.992Z,2075.00
2023-07-03T09:54:05.717Z,2078.00
2023-07-03T09:55:05.654Z,2082.00
2023-07-03T09:56:05.638Z,2080.00
2023-07-03T09:57:05.718Z,2077.00
2023-07-03T09:58:05.627Z,2095.00
2023-07-03T09:59:05.624Z,2076.00
2023-07-03T10:00:05.621Z,2051.00
2023-07-03T10:01:05.972Z,2056.00
2023-07-03T10:07:05.830Z,2055.00
2023-07-03T10:08:05.784Z,2060.00
2023-07-03T10:12:05.699Z,2055.00
2023-07-03T10:13:05.710Z,2059.00
2023-07-03T10:14:05.525Z,2057.00
2023-07-03T10:15:05.516Z,2051.00
2023-07-03T10:16:05.510Z,2029.00
2023-07-03T10:17:05.519Z,2029.00
2023-07-03T10:18:05.544Z,2014.00
2023-07-03T10:19:05.490Z,2015.00
2023-07-03T10:20:05.497Z,2016.00
2023-07-03T10:21:05.464Z,1989.00
2023-07-03T10:22:05.460Z,2000.00
2023-07-03T10:23:05.475Z,1983.00
2023-07-03T10:24:05.452Z,1986.00
2023-07-03T10:25:05.572Z,1980.00
2023-07-03T10:26:05.447Z,1975.00
2023-07-03T10:27:05.435Z,1982.00
2023-07-03T10:28:05.445Z,1986.00
2023-07-03T10:29:05.488Z,1977.00
2023-07-03T10:30:05.456Z,1972.00
2023-07-03T10:31:05.433Z,1975.00
2023-07-03T10:32:05.461Z,1974.00
2023-07-03T10:33:05.489Z,1960.00
2023-07-03T10:34:05.416Z,1978.00
2023-07-03T10:35:05.422Z,1981.00
2023-07-03T10:36:05.877Z,1976.00
2023-07-03T10:37:05.375Z,1966.00
2023-07-03T10:38:05.370Z,1969.00
2023-07-03T10:39:05.378Z,1962.00
2023-07-03T10:40:05.394Z,1956.00
2023-07-03T10:41:05.356Z,1961.00
2023-07-03T10:42:05.365Z,1956.00
2023-07-03T10:43:05.327Z,1945.00
2023-07-03T10:44:05.341Z,1940.00
2023-07-03T10:45:05.474Z,1942.00
2023-07-03T10:46:05.389Z,1953.00
2023-07-03T10:47:05.326Z,1947.00
2023-07-03T10:48:05.314Z,1931.00
2023-07-03T10:49:05.298Z,1930.00
2023-07-03T10:50:05.304Z,1929.00
2023-07-03T10:51:05.280Z,1927.00
2023-07-03T10:52:05.289Z,1931.00
2023-07-03T10:53:05.296Z,1922.00
2023-07-03T10:54:05.275Z,1930.00
2023-07-03T10:55:05.280Z,1920.00
2023-07-03T10:56:05.250Z,1923.00
2023-07-03T10:57:05.251Z,1918.00
2023-07-03T10:58:05.251Z,1896.00
2023-07-03T10:59:05.221Z,1907.00
2023-07-03T11:00:05.218Z,1906.00
2023-07-03T11:01:05.372Z,1913.00
2023-07-03T11:02:05.219Z,1905.00
2023-07-03T11:03:05.252Z,1886.00
2023-07-03T11:04:22.927Z,1885.00
2023-07-03T11:05:06.204Z,1887.00
2023-07-03T11:06:05.199Z,1891.00
2023-07-03T11:07:05.225Z,1894.00
2023-07-03T11:08:05.184Z,1892.00
2023-07-03T11:09:05.165Z,1893.00
2023-07-03T11:10:05.202Z,1891.00
2023-07-03T11:11:05.166Z,1881.00
2023-07-03T11:12:05.173Z,1882.00
2023-07-03T11:13:05.180Z,1880.00
2023-07-03T11:14:05.146Z,1875.00
2023-07-03T11:15:05.137Z,1859.00
2023-07-03T11:16:05.182Z,1868.00
2023-07-03T11:17:05.229Z,1864.00
2023-07-03T11:20:05.100Z,1854.00
2023-07-03T11:23:05.103Z,1855.00
2023-07-03T11:24:05.074Z,1860.00
2023-07-03T11:25:05.108Z,1863.00
2023-07-03T11:28:05.063Z,1855.00
2023-07-03T11:29:05.029Z,1858.00
2023-07-03T11:30:05.036Z,1857.00
2023-07-03T11:31:05.087Z,1861.00
2023-07-03T11:32:05.020Z,1841.00
2023-07-03T11:33:05.055Z,1846.00
2023-07-03T11:36:04.999Z,1843.00
2023-07-03T11:37:05.098Z,1845.00
2023-07-03T11:40:05.033Z,1843.00
2023-07-03T11:41:04.963Z,1845.00
2023-07-03T11:44:04.948Z,1843.00
2023-07-03T11:45:04.919Z,1845.00
2023-07-03T11:46:04.928Z,1845.00
2023-07-03T11:47:04.968Z,1836.00
2023-07-03T11:48:04.942Z,1847.00
2023-07-03T11:49:04.918Z,1834.00
2023-07-03T11:50:04.918Z,1821.00
2023-07-03T11:51:04.914Z,1826.00
2023-07-03T11:52:04.884Z,1819.00
2023-07-03T11:53:04.868Z,1817.00
2023-07-03T11:54:04.876Z,1812.00
2023-07-03T11:55:04.900Z,1804.00
2023-07-03T11:56:04.865Z,1813.00
2023-07-03T11:57:04.859Z,1795.00
2023-07-03T11:58:20.511Z,1799.00
2023-07-03T11:59:05.846Z,1800.00
2023-07-03T12:00:04.846Z,1801.00
2023-07-03T12:01:04.873Z,1800.00
2023-07-03T12:02:04.846Z,1795.00
2023-07-03T12:03:04.874Z,1795.00
2023-07-03T12:04:04.836Z,1798.00
2023-07-03T12:05:04.842Z,1789.00
2023-07-03T12:06:04.784Z,1774.00
2023-07-03T12:07:04.842Z,1780.00
2023-07-03T12:08:04.790Z,1788.00
2023-07-03T12:09:04.783Z,1778.00
2023-07-03T12:10:04.782Z,1775.00
2023-07-03T12:11:04.794Z,1773.00
2023-07-03T12:12:04.763Z,1766.00
2023-07-03T12:13:04.751Z,1751.00
2023-07-03T12:14:04.740Z,1764.00
2023-07-03T12:15:04.739Z,1769.00
2023-07-03T12:16:04.742Z,1761.00
2023-07-03T12:17:04.786Z,1757.00
2023-07-03T12:18:04.816Z,1759.00
2023-07-03T12:19:04.722Z,1749.00
2023-07-03T12:20:04.703Z,1745.00
2023-07-03T12:21:04.698Z,1746.00
2023-07-03T12:22:04.706Z,1749.00
2023-07-03T12:23:04.678Z,1737.00
2023-07-03T12:24:04.679Z,1744.00
2023-07-03T12:25:04.693Z,1735.00
2023-07-03T12:26:04.703Z,1741.00
2023-07-03T12:27:04.704Z,1729.00
2023-07-03T12:28:04.707Z,1734.00
2023-07-03T12:29:04.700Z,1737.00
2023-07-03T12:30:04.714Z,1728.00
2023-07-03T12:31:04.745Z,1735.00
2023-07-03T12:32:04.746Z,1718.00
2023-07-03T12:33:04.793Z,1729.00
2023-07-03T12:34:04.750Z,1726.00
2023-07-03T12:35:04.756Z,1717.00
2023-07-03T12:36:04.763Z,1719.00
2023-07-03T12:37:04.791Z,1720.00
2023-07-03T12:38:04.789Z,1719.00
2023-07-03T12:39:04.797Z,1714.00
2023-07-03T12:40:04.799Z,1705.00
2023-07-03T12:41:04.821Z,1713.00
2023-07-03T12:42:04.839Z,1700.00
2023-07-03T12:43:04.830Z,1707.00
2023-07-03T12:44:08.608Z,1707.00